Quick Links (Output Below):   Max & Min Temps   /   Climate Reports   /   Zone Forecasts
River Forecasts   /   Forestry Forecasts   /   Aviation Forecasts   /   Radars   /   Features

Terminal Aerodrome Forecast (Monticello)

Pick a Site:
Arkadelphia | El Dorado | Fayetteville | Fort Smith | Harrison | Highfill | Hot Springs | Jonesboro
Little Rock | Monticello | Mountain Home | Pine Bluff | Texarkana

KLLQ 082320Z 0900/0924 04004KT P6SM BKN250
     FM090900 00000KT P6SM SCT100 BKN250
     FM091600 33005KT P6SM OVC100
     FM091900 35008KT P6SM BKN050 OVC080=

 Latest METARs (Observations) 
How to Decode METARs
05Z KLLQ 090453Z AUTO 00000KT 10SM CLR 20/17 A3005 RMK AO2 SLP174
         T02000167 TSNO
04Z KLLQ 090353Z AUTO 00000KT 10SM CLR 21/17 A3006 RMK AO2 SLP175
         T02060167 TSNO
03Z KLLQ 090253Z AUTO 00000KT 10SM CLR 22/17 A3004 RMK AO2 SLP170
         T02170167 51014 TSNO
02Z KLLQ 090153Z AUTO 00000KT 10SM CLR 23/16 A3004 RMK AO2 SLP169
         T02280161 TSNO
01Z KLLQ 090053Z AUTO 00000KT 10SM CLR 25/16 A3002 RMK AO2 SLP163
         T02500161 TSNO
00Z KLLQ 082353Z AUTO 01003KT 10SM CLR 28/16 A3000 RMK AO2 SLP155
         T02830156 10339 20283 53001 TSNO
***** Today's Observations (Above) *****

23Z KLLQ 082253Z AUTO 04004KT 10SM CLR 31/16 A2999 RMK AO2 SLP152
         T03110156 TSNO
22Z KLLQ 082153Z AUTO 05005KT 10SM CLR 32/14 A2999 RMK AO2 SLP153
         T03170144 TSNO
21Z KLLQ 082053Z AUTO VRB03KT 10SM CLR 32/15 A3000 RMK AO2 SLP154
         T03220150 56021 TSNO
20Z KLLQ 081953Z AUTO VRB03KT 10SM BKN070 BKN110 33/15 A3001 RMK AO2
         SLP159 T03280150 TSNO
***** Yesterday's Observations (Above) *****

Back to Main Page

USA.gov is the U.S. government's official web portal to all federal, state and local government web resources and services.